Time;durP1;ratioP1;P1;durP2;ratioP2;P2;SDS_P1;SDS_P2;PMS_P1;PMS_P2;Temp;Humidity;BMP_temperature;BMP_pressure;BME280_temperature;BME280_humidity;BME280_pressure;Samples;Min_cycle;Max_cycle;Signal;HPM_P1;HPM_P2
2021/04/24 00:01:32;;;;;;;;;;;;;;;;;;5065236;28;20317;-70
2021/04/24 00:03:58;;;;;;;;;;;;;;;;;;5063812;28;20301;-68
2021/04/24 00:06:24;;;;;;;;;;;;;;;;;;5066926;28;20055;-68
2021/04/24 00:08:50;;;;;;;;;;;;;;;;;;5067391;28;19963;-68
2021/04/24 00:11:16;;;;;;;;;;;;;;;;;;5060782;28;19921;-68
2021/04/24 00:13:42;;;;;;;;;;;;;;;;;;5067152;28;19943;-69
2021/04/24 00:16:08;;;;;;;;;;;;;;;;;;5067282;28;19921;-69
2021/04/24 00:18:34;;;;;;;;;;;;;;;;;;5057826;28;19920;-68
2021/04/24 00:21:00;;;;;;;;;;;;;;;;;;5064955;28;20412;-68
2021/04/24 00:23:26;;;;;;;;;;;;;;;;;;5062386;28;19932;-68
2021/04/24 00:25:51;;;;;;;;;;;;;;;;;;5063563;28;20307;-68
2021/04/24 00:28:17;;;;;;;;;;;;;;;;;;5065105;28;19920;-69
2021/04/24 00:30:43;;;;;;;;;;;;;;;;;;5066516;28;20426;-68
2021/04/24 00:33:09;;;;;;;;;;;;;;;;;;5059903;28;22008;-68
2021/04/24 00:35:35;;;;;;;;;;;;;;;;;;5067302;28;19928;-68
2021/04/24 00:38:01;;;;;;;;;;;;;;;;;;5064223;28;19932;-68
2021/04/24 00:40:27;;;;;;;;;;;;;;;;;;5062841;28;19927;-68
2021/04/24 00:42:53;;;;;;;;;;;;;;;;;;5064834;28;19955;-68
2021/04/24 00:45:19;;;;;;;;;;;;;;;;;;5066431;28;20383;-68
2021/04/24 00:47:44;;;;;;;;;;;;;;;;;;5068871;28;19927;-68
2021/04/24 00:50:10;;;;;;;;;;;;;;;;;;5062962;28;19924;-68
2021/04/24 00:52:36;;;;;;;;;;;;;;;;;;5065742;28;19920;-68
2021/04/24 00:55:02;;;;;;;;;;;;;;;;;;5067196;28;20020;-68
2021/04/24 00:57:28;;;;;;;;;;;;;;;;;;5067048;28;19920;-68
2021/04/24 00:59:54;;;;;;;;;;;;;;;;;;5060521;28;20284;-68
2021/04/24 01:02:20;;;;;;;;;;;;;;;;;;5057901;28;19960;-68
2021/04/24 01:04:46;;;;;;;;;;;;;;;;;;5063928;28;19921;-68
2021/04/24 01:07:12;;;;;;;;;;;;;;;;;;5061854;28;19920;-68
2021/04/24 01:09:38;;;;;;;;;;;;;;;;;;5068337;28;19920;-68
2021/04/24 01:12:03;;;;;;;;;;;;;;;;;;5065172;28;20400;-68
2021/04/24 01:14:29;;;;;;;;;;;;;;;;;;5060079;28;19920;-69
2021/04/24 01:16:55;;;;;;;;;;;;;;;;;;5060749;28;19920;-68
2021/04/24 01:19:22;;;;;;;;;;;;;;;;;;5059405;28;19924;-68
2021/04/24 01:21:48;;;;;;;;;;;;;;;;;;5063956;28;19952;-68
2021/04/24 01:24:14;;;;;;;;;;;;;;;;;;5065334;28;19920;-68
2021/04/24 01:26:40;;;;;;;;;;;;;;;;;;5063633;28;20303;-68
2021/04/24 01:29:06;;;;;;;;;;;;;;;;;;5062916;28;19927;-68
2021/04/24 01:31:32;;;;;;;;;;;;;;;;;;5059010;28;20175;-68
2021/04/24 01:33:58;;;;;;;;;;;;;;;;;;5062379;28;20430;-68
2021/04/24 01:36:23;;;;;;;;;;;;;;;;;;5058734;28;19921;-68
2021/04/24 01:38:49;;;;;;;;;;;;;;;;;;5067525;28;19920;-68
2021/04/24 01:41:15;;;;;;;;;;;;;;;;;;5061854;28;20296;-68
2021/04/24 01:43:41;;;;;;;;;;;;;;;;;;5061492;28;19925;-68
2021/04/24 01:46:07;;;;;;;;;;;;;;;;;;5068580;28;19924;-68
2021/04/24 01:48:32;;;;;;;;;;;;;;;;;;5068943;28;19931;-68
2021/04/24 01:50:58;;;;;;;;;;;;;;;;;;5068302;28;19967;-68
2021/04/24 01:53:24;;;;;;;;;;;;;;;;;;5067814;28;20032;-68
2021/04/24 01:55:50;;;;;;;;;;;;;;;;;;5071820;28;20393;-68
2021/04/24 01:58:16;;;;;;;;;;;;;;;;;;5071055;28;19920;-68
2021/04/24 02:00:42;;;;;;;;;;;;;;;;;;5059518;28;19925;-68
2021/04/24 02:03:08;;;;;;;;;;;;;;;;;;5071371;28;20365;-68
2021/04/24 02:05:33;;;;;;;;;;;;;;;;;;5068463;28;20324;-68
2021/04/24 02:07:59;;;;;;;;;;;;;;;;;;5070076;28;19929;-68
2021/04/24 02:10:25;;;;;;;;;;;;;;;;;;5071643;28;19921;-69
2021/04/24 02:12:51;;;;;;;;;;;;;;;;;;5065698;28;19920;-68
2021/04/24 02:15:17;;;;;;;;;;;;;;;;;;5068178;28;20224;-68
2021/04/24 02:17:43;;;;;;;;;;;;;;;;;;5073532;28;20703;-69
2021/04/24 02:20:09;;;;;;;;;;;;;;;;;;5065712;28;22973;-68
2021/04/24 02:22:34;;;;;;;;;;;;;;;;;;5066258;28;19936;-68
2021/04/24 02:25:00;;;;;;;;;;;;;;;;;;5069441;28;19987;-68
2021/04/24 02:27:26;;;;;;;;;;;;;;;;;;5068633;28;19920;-69
2021/04/24 02:29:54;;;;;;;;;;;;;;;;;;5070357;28;21315;-69
2021/04/24 02:32:20;;;;;;;;;;;;;;;;;;5067467;28;19920;-68
2021/04/24 02:34:46;;;;;;;;;;;;;;;;;;5064237;28;19928;-68
2021/04/24 02:37:11;;;;;;;;;;;;;;;;;;5067693;28;19960;-68
2021/04/24 02:39:37;;;;;;;;;;;;;;;;;;5065564;28;19951;-69
2021/04/24 02:42:03;;;;;;;;;;;;;;;;;;5066415;28;19970;-72
2021/04/24 02:44:29;;;;;;;;;;;;;;;;;;5064572;28;19921;-68
2021/04/24 02:46:55;;;;;;;;;;;;;;;;;;5066810;28;19921;-69
2021/04/24 02:49:21;;;;;;;;;;;;;;;;;;5070724;28;19951;-68
2021/04/24 02:51:47;;;;;;;;;;;;;;;;;;5064784;28;19960;-69
2021/04/24 02:54:12;;;;;;;;;;;;;;;;;;5064512;28;19955;-68
2021/04/24 02:56:38;;;;;;;;;;;;;;;;;;5068322;28;20084;-68
2021/04/24 02:59:04;;;;;;;;;;;;;;;;;;5061931;28;20333;-68
2021/04/24 03:01:30;;;;;;;;;;;;;;;;;;5064464;28;20104;-68
2021/04/24 03:03:56;;;;;;;;;;;;;;;;;;5065485;28;19946;-70
2021/04/24 03:06:22;;;;;;;;;;;;;;;;;;5064169;28;19924;-69
2021/04/24 03:08:48;;;;;;;;;;;;;;;;;;5058042;28;19921;-68
2021/04/24 03:11:13;;;;;;;;;;;;;;;;;;5070633;28;19928;-68
2021/04/24 03:13:39;;;;;;;;;;;;;;;;;;5065667;28;19928;-68
2021/04/24 03:16:05;;;;;;;;;;;;;;;;;;5063446;28;19998;-69
2021/04/24 03:18:31;;;;;;;;;;;;;;;;;;5072146;28;19928;-69
2021/04/24 03:20:57;;;;;;;;;;;;;;;;;;5067711;28;19920;-68
2021/04/24 03:23:23;;;;;;;;;;;;;;;;;;5065520;28;20415;-69
2021/04/24 03:25:49;;;;;;;;;;;;;;;;;;5067476;28;19920;-68
2021/04/24 03:28:15;;;;;;;;;;;;;;;;;;5061986;28;19924;-69
2021/04/24 03:30:40;;;;;;;;;;;;;;;;;;5059026;28;20330;-73
2021/04/24 03:33:06;;;;;;;;;;;;;;;;;;5065777;28;19921;-68
2021/04/24 03:35:32;;;;;;;;;;;;;;;;;;5064161;28;19930;-69
2021/04/24 03:37:59;;;;;;;;;;;;;;;;;;5057980;28;19929;-69
2021/04/24 03:40:25;;;;;;;;;;;;;;;;;;5067175;28;19927;-69
2021/04/24 03:42:54;;;;;;;;;;;;;;;;;;5063555;28;19920;-68
2021/04/24 03:45:21;;;;;;;;;;;;;;;;;;5060420;28;19948;-69
2021/04/24 03:47:47;;;;;;;;;;;;;;;;;;5063770;28;19920;-69
2021/04/24 03:50:13;;;;;;;;;;;;;;;;;;5065005;28;20354;-68
2021/04/24 03:52:39;;;;;;;;;;;;;;;;;;5064971;28;19936;-68
2021/04/24 03:55:05;;;;;;;;;;;;;;;;;;5060427;28;19920;-69
2021/04/24 03:57:32;;;;;;;;;;;;;;;;;;5068309;28;20007;-68
2021/04/24 03:59:58;;;;;;;;;;;;;;;;;;5062880;28;19974;-68
2021/04/24 04:02:24;;;;;;;;;;;;;;;;;;5067687;28;20128;-69
2021/04/24 04:04:49;;;;;;;;;;;;;;;;;;5068967;28;19926;-69
2021/04/24 04:07:15;;;;;;;;;;;;;;;;;;5067121;28;20307;-68
2021/04/24 04:09:41;;;;;;;;;;;;;;;;;;5068739;28;19920;-68
2021/04/24 04:12:07;;;;;;;;;;;;;;;;;;5062638;28;19964;-68
2021/04/24 04:14:33;;;;;;;;;;;;;;;;;;5064700;28;19924;-68
2021/04/24 04:16:59;;;;;;;;;;;;;;;;;;5058560;28;19920;-68
2021/04/24 04:19:25;;;;;;;;;;;;;;;;;;5057384;28;20268;-69
2021/04/24 04:21:55;;;;;;;;;;;;;;;;;;5068095;28;19920;-68
2021/04/24 04:24:21;;;;;;;;;;;;;;;;;;5062481;28;19936;-69
2021/04/24 04:26:46;;;;;;;;;;;;;;;;;;5057040;28;19920;-68
2021/04/24 04:29:12;;;;;;;;;;;;;;;;;;5063168;28;19939;-69
2021/04/24 04:31:38;;;;;;;;;;;;;;;;;;5061142;28;19927;-69
2021/04/24 04:34:04;;;;;;;;;;;;;;;;;;5064542;28;19921;-69
2021/04/24 04:36:30;;;;;;;;;;;;;;;;;;5062685;28;19920;-68
2021/04/24 04:38:56;;;;;;;;;;;;;;;;;;5062394;28;20367;-69
2021/04/24 04:41:25;;;;;;;;;;;;;;;;;;5059889;28;19928;-69
2021/04/24 04:43:50;;;;;;;;;;;;;;;;;;5066263;28;19924;-69
2021/04/24 04:46:17;;;;;;;;;;;;;;;;;;5062943;28;19920;-69
2021/04/24 04:48:43;;;;;;;;;;;;;;;;;;5066305;28;19974;-68
2021/04/24 04:51:09;;;;;;;;;;;;;;;;;;5068982;28;19921;-69
2021/04/24 04:53:35;;;;;;;;;;;;;;;;;;5064065;28;19921;-69
2021/04/24 04:56:10;;;;;;;;;;;;;;;;;;5066381;28;19971;-69
2021/04/24 04:58:35;;;;;;;;;;;;;;;;;;5066256;28;19920;-68
2021/04/24 05:01:01;;;;;;;;;;;;;;;;;;5064973;28;20373;-69
2021/04/24 05:03:27;;;;;;;;;;;;;;;;;;5064737;28;19929;-69
2021/04/24 05:05:53;;;;;;;;;;;;;;;;;;5064584;28;19920;-69
2021/04/24 05:08:19;;;;;;;;;;;;;;;;;;5063207;28;19926;-69
2021/04/24 05:10:45;;;;;;;;;;;;;;;;;;5063545;28;19924;-69
2021/04/24 05:13:11;;;;;;;;;;;;;;;;;;5064844;28;20022;-69
2021/04/24 05:15:36;;;;;;;;;;;;;;;;;;5061007;28;19950;-69
2021/04/24 05:18:02;;;;;;;;;;;;;;;;;;5062676;28;19932;-69
2021/04/24 05:20:28;;;;;;;;;;;;;;;;;;5075835;28;19928;-69
2021/04/24 05:22:54;;;;;;;;;;;;;;;;;;5071369;28;19928;-68
2021/04/24 05:25:20;;;;;;;;;;;;;;;;;;5070092;28;20388;-69
2021/04/24 05:27:46;;;;;;;;;;;;;;;;;;5072093;28;19967;-69
2021/04/24 05:30:12;;;;;;;;;;;;;;;;;;5069943;28;19927;-69
2021/04/24 05:32:38;;;;;;;;;;;;;;;;;;5071437;28;20384;-69
2021/04/24 05:35:04;;;;;;;;;;;;;;;;;;5073657;28;19924;-70
2021/04/24 05:37:30;;;;;;;;;;;;;;;;;;5069124;28;19921;-69
2021/04/24 05:39:56;;;;;;;;;;;;;;;;;;5068101;28;19920;-70
2021/04/24 05:42:26;;;;;;;;;;;;;;;;;;5074346;28;19985;-70
2021/04/24 05:44:52;;;;;;;;;;;;;;;;;;5074864;28;20019;-69
2021/04/24 05:47:18;;;;;;;;;;;;;;;;;;5071017;28;19931;-69
2021/04/24 05:49:44;;;;;;;;;;;;;;;;;;5072977;28;19935;-69
2021/04/24 05:52:09;;;;;;;;;;;;;;;;;;5073087;28;19959;-69
2021/04/24 05:54:35;;;;;;;;;;;;;;;;;;5072897;28;19928;-69
2021/04/24 05:57:01;;;;;;;;;;;;;;;;;;5079424;28;19936;-69
2021/04/24 05:59:27;;;;;;;;;;;;;;;;;;5075666;28;20378;-69
2021/04/24 06:01:53;;;;;;;;;;;;;;;;;;5076418;28;19924;-69
2021/04/24 06:04:19;;;;;;;;;;;;;;;;;;5057418;28;19920;-69
2021/04/24 06:06:45;;;;;;;;;;;;;;;;;;5073383;28;19993;-70
2021/04/24 06:09:11;;;;;;;;;;;;;;;;;;5073733;28;19982;-69
2021/04/24 06:11:37;;;;;;;;;;;;;;;;;;5071740;28;19927;-69
2021/04/24 06:14:03;;;;;;;;;;;;;;;;;;5076053;28;19924;-70
2021/04/24 06:16:29;;;;;;;;;;;;;;;;;;5071160;28;19927;-70
2021/04/24 06:18:55;;;;;;;;;;;;;;;;;;5069311;28;19920;-69
2021/04/24 06:21:21;;;;;;;;;;;;;;;;;;5073345;28;19934;-69
2021/04/24 06:23:47;;;;;;;;;;;;;;;;;;5068676;28;19921;-70
2021/04/24 06:26:13;;;;;;;;;;;;;;;;;;5068385;28;19928;-67
2021/04/24 06:28:39;;;;;;;;;;;;;;;;;;5074560;28;19935;-69
2021/04/24 06:31:05;;;;;;;;;;;;;;;;;;5071681;28;20339;-69
2021/04/24 06:33:31;;;;;;;;;;;;;;;;;;5069876;28;19920;-69
2021/04/24 06:35:57;;;;;;;;;;;;;;;;;;5065508;28;19927;-69
2021/04/24 06:38:23;;;;;;;;;;;;;;;;;;5075432;28;19924;-69
2021/04/24 06:40:48;;;;;;;;;;;;;;;;;;5068580;28;19990;-68
2021/04/24 06:43:14;;;;;;;;;;;;;;;;;;5064907;28;19974;-67
2021/04/24 06:45:42;;;;;;;;;;;;;;;;;;5069844;28;19920;-68
2021/04/24 06:48:08;;;;;;;;;;;;;;;;;;5073188;28;19924;-69
2021/04/24 06:50:36;;;;;;;;;;;;;;;;;;5072512;28;19924;-69
2021/04/24 06:53:02;;;;;;;;;;;;;;;;;;5067581;28;19921;-70
2021/04/24 06:55:27;;;;;;;;;;;;;;;;;;5071905;28;19964;-69
2021/04/24 06:57:53;;;;;;;;;;;;;;;;;;5073314;28;19925;-69
2021/04/24 07:00:19;;;;;;;;;;;;;;;;;;5066833;28;19975;-71
2021/04/24 07:02:45;;;;;;;;;;;;;;;;;;5072714;28;19974;-69
2021/04/24 07:05:12;;;;;;;;;;;;;;;;;;5072015;28;19928;-73
2021/04/24 07:07:38;;;;;;;;;;;;;;;;;;5071997;28;19931;-70
2021/04/24 07:10:04;;;;;;;;;;;;;;;;;;5074253;28;19920;-72
2021/04/24 07:12:30;;;;;;;;;;;;;;;;;;5070542;28;19969;-73
2021/04/24 07:14:56;;;;;;;;;;;;;;;;;;5086628;28;20378;-69
2021/04/24 07:17:24;;;;;;;;;;;;;;;;;;5070050;28;19920;-69
2021/04/24 07:19:50;;;;;;;;;;;;;;;;;;5067256;28;19924;-69
2021/04/24 07:22:16;;;;;;;;;;;;;;;;;;5066417;28;19928;-68
2021/04/24 07:24:45;;;;;;;;;;;;;;;;;;5060445;28;19928;-68
2021/04/24 07:27:10;;;;;;;;;;;;;;;;;;5059939;28;19931;-69
2021/04/24 07:29:36;;;;;;;;;;;;;;;;;;5064085;28;20294;-70
2021/04/24 07:32:02;;;;;;;;;;;;;;;;;;5072928;28;20422;-70
2021/04/24 07:34:28;;;;;;;;;;;;;;;;;;5074912;28;19928;-72
2021/04/24 07:36:54;;;;;;;;;;;;;;;;;;5067129;28;19935;-63
2021/04/24 07:39:20;;;;;;;;;;;;;;;;;;5065857;28;19920;-59
2021/04/24 07:41:46;;;;;;;;;;;;;;;;;;5063125;28;20388;-61
2021/04/24 07:44:12;;;;;;;;;;;;;;;;;;5069117;28;19920;-71
2021/04/24 07:46:37;;;;;;;;;;;;;;;;;;5071592;28;19967;-71
2021/04/24 07:49:03;;;;;;;;;;;;;;;;;;5070171;28;20335;-72
2021/04/24 07:51:29;;;;;;;;;;;;;;;;;;5073928;28;19926;-71
2021/04/24 07:53:55;;;;;;;;;;;;;;;;;;5072536;28;20658;-71
2021/04/24 07:56:21;;;;;;;;;;;;;;;;;;5052017;28;19921;-71
2021/04/24 07:58:47;;;;;;;;;;;;;;;;;;5065464;28;19921;-70
2021/04/24 08:01:12;;;;;;;;;;;;;;;;;;5071034;28;19920;-72
2021/04/24 08:03:38;;;;;;;;;;;;;;;;;;5071573;28;19923;-70
2021/04/24 08:06:04;;;;;;;;;;;;;;;;;;5068658;28;19959;-70
2021/04/24 08:08:30;;;;;;;;;;;;;;;;;;5063731;28;19929;-59
2021/04/24 08:10:56;;;;;;;;;;;;;;;;;;5068840;28;19926;-69
2021/04/24 08:13:22;;;;;;;;;;;;;;;;;;5067455;28;20328;-70
2021/04/24 08:15:49;;;;;;;;;;;;;;;;;;5066278;28;19938;-70
2021/04/24 08:18:15;;;;;;;;;;;;;;;;;;5071205;28;20245;-70
2021/04/24 08:20:40;;;;;;;;;;;;;;;;;;5060567;28;19998;-69
2021/04/24 08:23:06;;;;;;;;;;;;;;;;;;5066945;28;19947;-71
2021/04/24 08:25:32;;;;;;;;;;;;;;;;;;5068914;28;19924;-70
2021/04/24 08:27:58;;;;;;;;;;;;;;;;;;5068636;28;19928;-70
2021/04/24 08:30:24;;;;;;;;;;;;;;;;;;5070115;28;19960;-70
2021/04/24 08:32:50;;;;;;;;;;;;;;;;;;5068469;28;20342;-71
2021/04/24 08:35:16;;;;;;;;;;;;;;;;;;5069709;28;20386;-72
2021/04/24 08:37:43;;;;;;;;;;;;;;;;;;5070449;28;19920;-70
2021/04/24 08:40:09;;;;;;;;;;;;;;;;;;5066063;28;19920;-69
2021/04/24 08:42:35;;;;;;;;;;;;;;;;;;5065473;28;19921;-70
2021/04/24 08:45:01;;;;;;;;;;;;;;;;;;5061124;28;20048;-68
2021/04/24 08:47:26;;;;;;;;;;;;;;;;;;5065794;28;20023;-64
2021/04/24 08:49:54;;;;;;;;;;;;;;;;;;5065122;28;19920;-63
2021/04/24 08:52:19;;;;;;;;;;;;;;;;;;5063977;28;19924;-71
2021/04/24 08:54:45;;;;;;;;;;;;;;;;;;5067848;28;19924;-71
2021/04/24 08:57:11;;;;;;;;;;;;;;;;;;5065316;28;19936;-70
2021/04/24 08:59:37;;;;;;;;;;;;;;;;;;5064562;28;19927;-70
2021/04/24 09:02:03;;;;;;;;;;;;;;;;;;5067143;28;19929;-72
2021/04/24 09:04:29;;;;;;;;;;;;;;;;;;5067312;28;19985;-70
2021/04/24 09:06:55;;;;;;;;;;;;;;;;;;5063780;28;19931;-71
2021/04/24 09:09:21;;;;;;;;;;;;;;;;;;5064702;28;19921;-69
2021/04/24 09:11:46;;;;;;;;;;;;;;;;;;5067032;28;20368;-73
2021/04/24 09:14:12;;;;;;;;;;;;;;;;;;5062013;28;19928;-71
2021/04/24 09:16:38;;;;;;;;;;;;;;;;;;5068288;28;19929;-72
2021/04/24 09:19:04;;;;;;;;;;;;;;;;;;5065769;28;19936;-72
2021/04/24 09:21:30;;;;;;;;;;;;;;;;;;5064675;28;20357;-71
2021/04/24 09:23:56;;;;;;;;;;;;;;;;;;5056976;28;20575;-71
2021/04/24 09:26:22;;;;;;;;;;;;;;;;;;5064027;28;20342;-71
2021/04/24 09:28:50;;;;;;;;;;;;;;;;;;5063196;28;19920;-71
2021/04/24 09:31:16;;;;;;;;;;;;;;;;;;5063401;28;19943;-70
2021/04/24 09:33:42;;;;;;;;;;;;;;;;;;5066487;28;20373;-70
2021/04/24 09:36:08;;;;;;;;;;;;;;;;;;5059003;28;19928;-69
2021/04/24 09:38:34;;;;;;;;;;;;;;;;;;5070583;28;19939;-68
2021/04/24 09:41:03;;;;;;;;;;;;;;;;;;5068953;28;19939;-70
2021/04/24 09:43:29;;;;;;;;;;;;;;;;;;5066945;28;19924;-68
2021/04/24 09:45:55;;;;;;;;;;;;;;;;;;5065180;28;19928;-69
2021/04/24 09:48:21;;;;;;;;;;;;;;;;;;5068596;28;20376;-70
2021/04/24 09:50:47;;;;;;;;;;;;;;;;;;5064587;28;20312;-67
2021/04/24 09:53:13;;;;;;;;;;;;;;;;;;5061357;28;19921;-66
2021/04/24 09:55:40;;;;;;;;;;;;;;;;;;5057959;28;19981;-70
2021/04/24 09:58:06;;;;;;;;;;;;;;;;;;5068068;28;19933;-72
2021/04/24 10:00:32;;;;;;;;;;;;;;;;;;5070194;28;19975;-70
2021/04/24 10:02:59;;;;;;;;;;;;;;;;;;5068699;28;19921;-69
2021/04/24 10:05:25;;;;;;;;;;;;;;;;;;5065895;28;19920;-72
2021/04/24 10:07:51;;;;;;;;;;;;;;;;;;5070451;28;19924;-71
2021/04/24 10:10:16;;;;;;;;;;;;;;;;;;5071651;28;19944;-69
2021/04/24 10:12:42;;;;;;;;;;;;;;;;;;5069358;28;20349;-68
2021/04/24 10:15:08;;;;;;;;;;;;;;;;;;5069739;28;19928;-69
2021/04/24 10:17:35;;;;;;;;;;;;;;;;;;5071582;28;20338;-64
2021/04/24 10:20:01;;;;;;;;;;;;;;;;;;5069505;28;19927;-64
2021/04/24 10:22:26;;;;;;;;;;;;;;;;;;5063819;28;20573;-63
2021/04/24 10:24:53;;;;;;;;;;;;;;;;;;5071637;28;19927;-64
2021/04/24 10:27:18;;;;;;;;;;;;;;;;;;5066523;28;20268;-64
2021/04/24 10:29:44;;;;;;;;;;;;;;;;;;5067479;28;20023;-65
2021/04/24 10:32:10;;;;;;;;;;;;;;;;;;5064212;28;20372;-64
2021/04/24 10:34:36;;;;;;;;;;;;;;;;;;5069363;28;20011;-63
2021/04/24 10:37:03;;;;;;;;;;;;;;;;;;5067668;28;20270;-53
2021/04/24 10:39:29;;;;;;;;;;;;;;;;;;5066083;28;19921;-64
2021/04/24 10:41:55;;;;;;;;;;;;;;;;;;5067594;28;20594;-64
2021/04/24 10:44:21;;;;;;;;;;;;;;;;;;5066274;28;19927;-64
2021/04/24 10:46:47;;;;;;;;;;;;;;;;;;5070338;28;19928;-63
2021/04/24 10:49:13;;;;;;;;;;;;;;;;;;5065691;28;19954;-64
2021/04/24 10:51:39;;;;;;;;;;;;;;;;;;5059259;28;19928;-64
2021/04/24 10:54:04;;;;;;;;;;;;;;;;;;5067784;28;20386;-63
2021/04/24 10:56:33;;;;;;;;;;;;;;;;;;5062920;28;19944;-63
2021/04/24 10:58:59;;;;;;;;;;;;;;;;;;5066404;28;20601;-70
2021/04/24 11:01:25;;;;;;;;;;;;;;;;;;5071260;28;19963;-63
2021/04/24 11:03:52;;;;;;;;;;;;;;;;;;5074313;28;19924;-63
2021/04/24 11:06:19;;;;;;;;;;;;;;;;;;5068591;28;19928;-64
2021/04/24 11:08:45;;;;;;;;;;;;;;;;;;5067325;28;19926;-64
2021/04/24 11:11:11;;;;;;;;;;;;;;;;;;5065415;28;19924;-64
2021/04/24 11:13:37;;;;;;;;;;;;;;;;;;5073907;28;19924;-63
2021/04/24 11:16:03;;;;;;;;;;;;;;;;;;5058173;28;20573;-63
2021/04/24 11:18:29;;;;;;;;;;;;;;;;;;5072384;28;19994;-63
2021/04/24 11:20:55;;;;;;;;;;;;;;;;;;5068596;28;20008;-63
2021/04/24 11:23:21;;;;;;;;;;;;;;;;;;5069932;28;20388;-63
2021/04/24 11:25:47;;;;;;;;;;;;;;;;;;5066951;28;19944;-63
2021/04/24 11:28:13;;;;;;;;;;;;;;;;;;5067042;28;19920;-63
2021/04/24 11:30:39;;;;;;;;;;;;;;;;;;5072777;28;19936;-63
2021/04/24 11:33:05;;;;;;;;;;;;;;;;;;5068266;28;19926;-63
2021/04/24 11:35:31;;;;;;;;;;;;;;;;;;5069883;28;20587;-68
2021/04/24 11:37:58;;;;;;;;;;;;;;;;;;5072876;28;20006;-69
2021/04/24 11:40:27;;;;;;;;;;;;;;;;;;5078312;28;19920;-69
2021/04/24 11:42:53;;;;;;;;;;;;;;;;;;5062607;28;19924;-69
2021/04/24 11:45:18;;;;;;;;;;;;;;;;;;5068145;28;19981;-69
2021/04/24 11:47:44;;;;;;;;;;;;;;;;;;5070968;28;19929;-69
2021/04/24 11:50:10;;;;;;;;;;;;;;;;;;5070870;28;19938;-69
2021/04/24 11:52:36;;;;;;;;;;;;;;;;;;5068393;28;19927;-69
2021/04/24 11:55:02;;;;;;;;;;;;;;;;;;5068162;28;19924;-69
2021/04/24 11:57:28;;;;;;;;;;;;;;;;;;5067446;28;20307;-69
2021/04/24 11:59:53;;;;;;;;;;;;;;;;;;5065778;28;19928;-69
2021/04/24 12:02:20;;;;;;;;;;;;;;;;;;5067462;28;19920;-69
2021/04/24 12:04:45;;;;;;;;;;;;;;;;;;5069491;28;19947;-68
2021/04/24 12:07:11;;;;;;;;;;;;;;;;;;5067008;28;19925;-69
2021/04/24 12:09:37;;;;;;;;;;;;;;;;;;5068701;28;19974;-67
2021/04/24 12:12:03;;;;;;;;;;;;;;;;;;5073815;28;19921;-67
2021/04/24 12:14:31;;;;;;;;;;;;;;;;;;5072023;28;19920;-67
2021/04/24 12:16:57;;;;;;;;;;;;;;;;;;5066321;28;19929;-67
2021/04/24 12:19:23;;;;;;;;;;;;;;;;;;5068139;28;19928;-67
2021/04/24 12:21:49;;;;;;;;;;;;;;;;;;5068964;28;20418;-67
2021/04/24 12:24:16;;;;;;;;;;;;;;;;;;5067466;28;19924;-68
2021/04/24 12:26:42;;;;;;;;;;;;;;;;;;5058730;28;19970;-68
2021/04/24 12:29:08;;;;;;;;;;;;;;;;;;5076609;28;19920;-68
2021/04/24 12:31:34;;;;;;;;;;;;;;;;;;5066528;28;20283;-67
2021/04/24 12:34:00;;;;;;;;;;;;;;;;;;5066925;28;19928;-67
2021/04/24 12:36:25;;;;;;;;;;;;;;;;;;5059352;28;20385;-67
2021/04/24 12:38:51;;;;;;;;;;;;;;;;;;5064491;28;19921;-67
2021/04/24 12:41:17;;;;;;;;;;;;;;;;;;5066974;28;20395;-67
2021/04/24 12:43:45;;;;;;;;;;;;;;;;;;5070183;28;20238;-67
2021/04/24 12:46:12;;;;;;;;;;;;;;;;;;5060614;28;20304;-68
2021/04/24 12:48:38;;;;;;;;;;;;;;;;;;5065065;28;19974;-68
2021/04/24 12:51:04;;;;;;;;;;;;;;;;;;5071806;28;19920;-67
2021/04/24 12:53:30;;;;;;;;;;;;;;;;;;5066017;28;19974;-68
2021/04/24 12:55:56;;;;;;;;;;;;;;;;;;5066321;28;20452;-68
2021/04/24 12:58:21;;;;;;;;;;;;;;;;;;5061169;28;19920;-68
2021/04/24 13:00:48;;;;;;;;;;;;;;;;;;5064731;28;19921;-67
2021/04/24 13:03:14;;;;;;;;;;;;;;;;;;5065297;28;19928;-67
2021/04/24 13:05:40;;;;;;;;;;;;;;;;;;5071535;28;19921;-68
2021/04/24 13:08:06;;;;;;;;;;;;;;;;;;5060073;28;19921;-67
2021/04/24 13:10:31;;;;;;;;;;;;;;;;;;5067425;28;19928;-67
2021/04/24 13:12:58;;;;;;;;;;;;;;;;;;5067855;28;19920;-67
2021/04/24 13:15:24;;;;;;;;;;;;;;;;;;5066420;28;19921;-68
2021/04/24 13:17:50;;;;;;;;;;;;;;;;;;5060544;28;19953;-67
2021/04/24 13:20:15;;;;;;;;;;;;;;;;;;5067181;28;19974;-67
2021/04/24 13:22:42;;;;;;;;;;;;;;;;;;5067703;28;19934;-67
2021/04/24 13:25:08;;;;;;;;;;;;;;;;;;5062513;28;19924;-67
2021/04/24 13:27:34;;;;;;;;;;;;;;;;;;5069473;28;19955;-67
2021/04/24 13:29:59;;;;;;;;;;;;;;;;;;5069840;28;19920;-68
2021/04/24 13:32:25;;;;;;;;;;;;;;;;;;5065670;28;19924;-68
2021/04/24 13:34:51;;;;;;;;;;;;;;;;;;5063717;28;19920;-68
2021/04/24 13:37:17;;;;;;;;;;;;;;;;;;5068017;28;19924;-68
2021/04/24 13:39:43;;;;;;;;;;;;;;;;;;5065230;28;19935;-60
2021/04/24 13:42:09;;;;;;;;;;;;;;;;;;5075221;28;19947;-61
2021/04/24 13:44:35;;;;;;;;;;;;;;;;;;5065150;28;19928;-63
2021/04/24 13:47:01;;;;;;;;;;;;;;;;;;5064092;28;20585;-60
2021/04/24 13:49:27;;;;;;;;;;;;;;;;;;5065600;28;19934;-60
2021/04/24 13:51:56;;;;;;;;;;;;;;;;;;5073544;28;19989;-57
2021/04/24 13:54:22;;;;;;;;;;;;;;;;;;5070478;28;19928;-69
2021/04/24 13:56:50;;;;;;;;;;;;;;;;;;5073041;28;19927;-69
2021/04/24 13:59:16;;;;;;;;;;;;;;;;;;5072275;28;19928;-69
2021/04/24 14:01:42;;;;;;;;;;;;;;;;;;5073718;28;19939;-69
2021/04/24 14:04:08;;;;;;;;;;;;;;;;;;5067304;28;19924;-69
2021/04/24 14:06:34;;;;;;;;;;;;;;;;;;5072695;28;19931;-68
2021/04/24 14:09:00;;;;;;;;;;;;;;;;;;5065585;28;19920;-68
2021/04/24 14:11:25;;;;;;;;;;;;;;;;;;5071112;28;19930;-60
2021/04/24 14:13:51;;;;;;;;;;;;;;;;;;5073558;28;19927;-58
2021/04/24 14:16:18;;;;;;;;;;;;;;;;;;5067446;28;19920;-60
2021/04/24 14:18:44;;;;;;;;;;;;;;;;;;5064681;28;19920;-59
2021/04/24 14:21:10;;;;;;;;;;;;;;;;;;5070333;28;20402;-68
2021/04/24 14:23:35;;;;;;;;;;;;;;;;;;5075057;28;19928;-69
2021/04/24 14:26:01;;;;;;;;;;;;;;;;;;5064400;28;19924;-68
2021/04/24 14:28:27;;;;;;;;;;;;;;;;;;5070618;28;19921;-68
2021/04/24 14:30:57;;;;;;;;;;;;;;;;;;5065119;28;19938;-67
2021/04/24 14:33:26;;;;;;;;;;;;;;;;;;5067044;28;19920;-68
2021/04/24 14:35:52;;;;;;;;;;;;;;;;;;5070109;28;19943;-68
2021/04/24 14:38:18;;;;;;;;;;;;;;;;;;5071755;28;19939;-70
2021/04/24 14:40:44;;;;;;;;;;;;;;;;;;5068723;28;19923;-68
2021/04/24 14:43:11;;;;;;;;;;;;;;;;;;5065543;28;19925;-67
2021/04/24 14:45:43;;;;;;;;;;;;;;;;;;5072834;28;19955;-68
2021/04/24 14:48:09;;;;;;;;;;;;;;;;;;5063122;28;19924;-67
2021/04/24 14:50:35;;;;;;;;;;;;;;;;;;5064669;28;19942;-67
2021/04/24 14:53:01;;;;;;;;;;;;;;;;;;5071750;28;19920;-67
2021/04/24 14:55:27;;;;;;;;;;;;;;;;;;5070663;28;20307;-67
2021/04/24 14:57:52;;;;;;;;;;;;;;;;;;5068939;28;19919;-67
2021/04/24 15:00:18;;;;;;;;;;;;;;;;;;5071605;28;19921;-68
2021/04/24 15:02:44;;;;;;;;;;;;;;;;;;5068332;28;19920;-67
2021/04/24 15:05:10;;;;;;;;;;;;;;;;;;5067719;28;19920;-71
2021/04/24 15:07:36;;;;;;;;;;;;;;;;;;5068579;28;19924;-67
2021/04/24 15:10:02;;;;;;;;;;;;;;;;;;5074399;28;19924;-59
2021/04/24 15:12:29;;;;;;;;;;;;;;;;;;5066210;28;19924;-58
2021/04/24 15:14:55;;;;;;;;;;;;;;;;;;5068269;28;20002;-58
2021/04/24 15:17:21;;;;;;;;;;;;;;;;;;5074442;28;19924;-58
2021/04/24 15:19:47;;;;;;;;;;;;;;;;;;5063840;28;19928;-56
2021/04/24 15:22:13;;;;;;;;;;;;;;;;;;5067126;28;20009;-56
2021/04/24 15:24:39;;;;;;;;;;;;;;;;;;5062516;28;19925;-54
2021/04/24 15:27:05;;;;;;;;;;;;;;;;;;5063848;28;19931;-55
2021/04/24 15:29:30;;;;;;;;;;;;;;;;;;5068632;28;19920;-54
2021/04/24 15:31:56;;;;;;;;;;;;;;;;;;5068941;28;19927;-56
2021/04/24 15:34:22;;;;;;;;;;;;;;;;;;5064158;28;20011;-56
2021/04/24 15:36:50;;;;;;;;;;;;;;;;;;5071369;28;20009;-52
2021/04/24 15:39:16;;;;;;;;;;;;;;;;;;5071368;28;19920;-53
2021/04/24 15:43:50;;;;;;;13.40;3.00;;;;;;;16.93;38.51;97000.59;5108236;27;20390;-66
2021/04/24 15:46:16;;;;;;;13.57;2.72;;;;;;;15.57;42.62;96995.97;5097648;27;20070;-66
2021/04/24 15:48:42;;;;;;;8.93;2.63;;;;;;;15.15;43.67;96992.44;5101145;28;20036;-65
2021/04/24 15:51:09;;;;;;;8.80;2.75;;;;;;;15.05;44.15;96982.28;5103922;28;20039;-66
2021/04/24 15:58:05;;;;;;;9.57;2.75;;;;;;;14.99;44.70;96988.28;5102770;28;20068;-60
2021/04/24 16:00:32;;;;;;;9.23;2.65;;;;;;;14.93;45.13;96981.16;5111297;27;20160;-63
2021/04/24 16:03:00;;;;;;;11.43;2.40;;;;;;;14.89;45.28;96986.97;5096956;28;20048;-65
2021/04/24 16:05:27;;;;;;;9.18;2.38;;;;;;;14.86;45.53;96990.78;5103086;28;20067;-70
2021/04/24 16:07:53;;;;;;;6.85;3.08;;;;;;;14.85;45.37;96982.09;5105219;28;20109;-67
2021/04/24 16:10:21;;;;;;;7.72;2.20;;;;;;;14.83;45.68;96978.03;5099002;27;20491;-68
2021/04/24 16:12:48;;;;;;;9.18;2.58;;;;;;;14.80;45.68;96979.25;5097002;28;20039;-68
2021/04/24 16:15:16;;;;;;;9.90;2.50;;;;;;;14.83;45.91;96981.47;5106555;28;20044;-68
2021/04/24 16:17:43;;;;;;;6.28;2.33;;;;;;;14.83;45.95;96976.22;5104354;28;20288;-68
2021/04/24 16:20:13;;;;;;;5.03;2.10;;;;;;;14.83;45.95;96978.84;5089859;28;20068;-67
2021/04/24 16:22:44;;;;;;;11.63;2.22;;;;;;;14.80;46.10;96974.00;5090390;28;20033;-67
2021/04/24 16:25:12;;;;;;;5.28;2.33;;;;;;;14.78;45.95;96978.63;5083850;28;20071;-67